createdAt,value
2023-02-04T00:00:17.589Z,9.67
2023-02-04T00:02:44.470Z,9.64
2023-02-04T00:05:12.952Z,9.63
2023-02-04T00:07:41.369Z,9.63
2023-02-04T00:10:10.305Z,9.60
2023-02-04T00:12:37.169Z,9.60
2023-02-04T00:15:04.642Z,9.60
2023-02-04T00:17:31.428Z,9.57
2023-02-04T00:19:58.247Z,9.55
2023-02-04T00:22:26.458Z,9.52
2023-02-04T00:24:53.246Z,9.49
2023-02-04T00:27:20.024Z,9.48
2023-02-04T00:29:46.811Z,9.48
2023-02-04T00:32:13.676Z,9.45
2023-02-04T00:34:40.841Z,9.44
2023-02-04T00:37:07.630Z,9.42
2023-02-04T00:39:34.407Z,9.42
2023-02-04T00:42:01.175Z,9.39
2023-02-04T00:44:27.961Z,9.39
2023-02-04T00:46:54.767Z,9.36
2023-02-04T00:49:21.529Z,9.35
2023-02-04T00:51:48.337Z,9.33
2023-02-04T00:54:18.365Z,9.36
2023-02-04T00:56:45.345Z,9.36
2023-02-04T00:59:12.153Z,9.34
2023-02-04T01:01:39.120Z,9.34
2023-02-04T01:04:05.919Z,9.36
2023-02-04T01:06:32.726Z,9.35
2023-02-04T01:08:59.540Z,9.36
2023-02-04T01:11:26.447Z,9.35
2023-02-04T01:13:53.534Z,9.34
2023-02-04T01:16:20.452Z,9.36
2023-02-04T01:18:47.337Z,9.35
2023-02-04T01:21:14.204Z,9.36
2023-02-04T01:23:41.067Z,9.37
2023-02-04T01:26:07.823Z,9.38
2023-02-04T01:28:34.621Z,9.40
2023-02-04T01:31:01.531Z,9.37
2023-02-04T01:33:28.341Z,9.36
2023-02-04T01:35:55.116Z,9.34
2023-02-04T01:38:21.894Z,9.30
2023-02-04T01:40:48.812Z,9.29
2023-02-04T01:43:17.837Z,9.26
2023-02-04T01:45:46.415Z,9.26
2023-02-04T01:48:20.029Z,9.22
2023-02-04T01:50:52.370Z,9.21
2023-02-04T01:53:25.301Z,9.18
2023-02-04T01:55:52.499Z,9.12
2023-02-04T01:58:20.038Z,9.09
2023-02-04T02:00:46.953Z,9.05
2023-02-04T02:03:13.978Z,9.03
2023-02-04T02:05:51.319Z,9.02
2023-02-04T02:08:18.693Z,8.93
2023-02-04T02:10:48.241Z,8.83
2023-02-04T02:13:19.257Z,8.77
2023-02-04T02:15:47.398Z,8.67
2023-02-04T02:18:14.373Z,8.60
2023-02-04T02:20:43.842Z,8.57
2023-02-04T02:23:49.107Z,8.52
2023-02-04T02:26:18.035Z,8.46
2023-02-04T02:28:47.655Z,8.44
2023-02-04T02:31:15.885Z,8.45
2023-02-04T02:33:42.876Z,8.44
2023-02-04T02:36:10.064Z,8.41
2023-02-04T02:38:37.346Z,8.37
2023-02-04T02:41:05.392Z,8.31
2023-02-04T02:43:32.488Z,8.27
2023-02-04T02:46:00.970Z,8.22
2023-02-04T02:48:27.951Z,8.22
2023-02-04T02:50:54.849Z,8.21
2023-02-04T02:53:22.063Z,8.20
2023-02-04T02:55:48.946Z,8.19
2023-02-04T02:58:25.710Z,8.22
2023-02-04T03:00:53.060Z,8.22
2023-02-04T03:03:31.618Z,8.25
2023-02-04T03:06:06.325Z,8.25
2023-02-04T03:08:33.285Z,8.26
2023-02-04T03:11:00.074Z,8.27
2023-02-04T03:13:26.906Z,8.25
2023-02-04T03:15:54.596Z,8.23
2023-02-04T03:18:21.598Z,8.19
2023-02-04T03:20:51.213Z,8.13
2023-02-04T03:23:18.951Z,8.09
2023-02-04T03:25:45.816Z,8.05
2023-02-04T03:28:12.685Z,8.01
2023-02-04T03:30:39.489Z,7.95
2023-02-04T03:33:06.343Z,7.89
2023-02-04T03:35:33.152Z,7.85
2023-02-04T03:37:59.914Z,7.81
2023-02-04T03:40:26.723Z,7.76
2023-02-04T03:42:53.497Z,7.72
2023-02-04T03:45:20.326Z,7.66
2023-02-04T03:47:47.359Z,7.61
2023-02-04T03:50:14.450Z,7.55
2023-02-04T03:52:41.268Z,7.52
2023-02-04T03:55:08.292Z,7.47
2023-02-04T03:57:35.061Z,7.43
2023-02-04T04:00:02.031Z,7.40
2023-02-04T04:02:28.916Z,7.35
2023-02-04T04:04:55.667Z,7.30
2023-02-04T04:07:22.402Z,7.27
2023-02-04T04:09:49.189Z,7.23
2023-02-04T04:12:16.000Z,7.18
2023-02-04T04:14:42.804Z,7.15
2023-02-04T04:17:09.572Z,7.11
2023-02-04T04:19:36.330Z,7.06
2023-02-04T04:22:03.103Z,7.04
2023-02-04T04:24:29.874Z,7.00
2023-02-04T04:26:56.629Z,6.97
2023-02-04T04:29:23.421Z,6.94
2023-02-04T04:31:50.237Z,6.91
2023-02-04T04:34:17.027Z,6.86
2023-02-04T04:36:43.829Z,6.81
2023-02-04T04:39:10.730Z,6.78
2023-02-04T04:41:37.509Z,6.75
2023-02-04T04:44:04.257Z,6.71
2023-02-04T04:46:31.106Z,6.68
2023-02-04T04:48:57.882Z,6.66
2023-02-04T04:51:24.682Z,6.62
2023-02-04T04:53:51.723Z,6.59
2023-02-04T04:56:19.189Z,6.56
2023-02-04T04:58:45.953Z,6.52
2023-02-04T05:01:12.860Z,6.49
2023-02-04T05:03:39.818Z,6.46
2023-02-04T05:06:06.658Z,6.41
2023-02-04T05:08:34.780Z,6.39
2023-02-04T05:11:03.284Z,6.36
2023-02-04T05:13:30.405Z,6.34
2023-02-04T05:15:57.228Z,6.30
2023-02-04T05:18:24.243Z,6.28
2023-02-04T05:20:50.983Z,6.25
2023-02-04T05:23:17.752Z,6.23
2023-02-04T05:25:44.540Z,6.19
2023-02-04T05:28:11.352Z,6.17
2023-02-04T05:30:38.188Z,6.15
2023-02-04T05:33:04.986Z,6.12
2023-02-04T05:35:31.747Z,6.09
2023-02-04T05:37:58.522Z,6.07
2023-02-04T05:40:25.334Z,6.03
2023-02-04T05:42:52.128Z,6.02
2023-02-04T05:45:19.099Z,5.99
2023-02-04T05:47:45.972Z,5.97
2023-02-04T05:50:13.110Z,5.95
2023-02-04T05:52:40.417Z,5.92
2023-02-04T05:55:08.671Z,5.90
2023-02-04T05:57:35.415Z,5.88
2023-02-04T06:00:02.522Z,5.84
2023-02-04T06:02:29.271Z,5.82
2023-02-04T06:04:56.039Z,5.80
2023-02-04T06:07:22.814Z,5.77
2023-02-04T06:09:49.551Z,5.76
2023-02-04T06:12:16.353Z,5.73
2023-02-04T06:14:43.120Z,5.70
2023-02-04T06:17:09.885Z,5.68
2023-02-04T06:19:36.768Z,5.66
2023-02-04T06:22:03.554Z,5.64
2023-02-04T06:24:30.345Z,5.62
2023-02-04T06:26:57.110Z,5.59
2023-02-04T06:29:23.872Z,5.58
2023-02-04T06:31:50.908Z,5.57
2023-02-04T06:34:17.741Z,5.54
2023-02-04T06:36:44.541Z,5.51
2023-02-04T06:39:11.363Z,5.52
2023-02-04T06:41:38.124Z,5.49
2023-02-04T06:44:04.920Z,5.49
2023-02-04T06:46:31.801Z,5.47
2023-02-04T06:48:58.673Z,5.45
2023-02-04T06:51:25.985Z,5.44
2023-02-04T06:53:52.780Z,5.43
2023-02-04T06:56:19.588Z,5.40
2023-02-04T06:58:46.370Z,5.41
2023-02-04T07:01:13.411Z,5.42
2023-02-04T07:03:40.215Z,5.41
2023-02-04T07:06:06.983Z,5.40
2023-02-04T07:08:33.837Z,5.41
2023-02-04T07:11:00.645Z,5.41
2023-02-04T07:13:27.409Z,5.43
2023-02-04T07:15:54.287Z,5.44
2023-02-04T07:18:21.273Z,5.45
2023-02-04T07:20:48.109Z,5.48
2023-02-04T07:23:14.911Z,5.51
2023-02-04T07:25:41.708Z,5.55
2023-02-04T07:28:08.612Z,5.59
2023-02-04T07:30:35.804Z,5.62
2023-02-04T07:33:02.815Z,5.67
2023-02-04T07:35:29.572Z,5.75
2023-02-04T07:37:56.328Z,5.88
2023-02-04T07:40:23.123Z,6.01
2023-02-04T07:42:49.873Z,6.14
2023-02-04T07:45:16.637Z,6.28
2023-02-04T07:47:43.383Z,6.39
2023-02-04T07:50:10.270Z,6.50
2023-02-04T07:52:37.014Z,6.56
2023-02-04T07:55:03.797Z,6.59
2023-02-04T07:57:30.934Z,6.60
2023-02-04T07:59:57.767Z,6.62
2023-02-04T08:02:24.908Z,6.60
2023-02-04T08:04:51.737Z,6.60
2023-02-04T08:07:18.723Z,6.62
2023-02-04T08:09:46.890Z,6.62
2023-02-04T08:12:13.656Z,6.63
2023-02-04T08:14:40.396Z,6.63
2023-02-04T08:17:07.167Z,6.63
2023-02-04T08:19:33.925Z,6.67
2023-02-04T08:22:00.704Z,6.74
2023-02-04T08:24:27.501Z,6.86
2023-02-04T08:26:54.266Z,6.99
2023-02-04T08:29:21.045Z,7.14
2023-02-04T08:31:47.922Z,7.27
2023-02-04T08:34:14.782Z,7.37
2023-02-04T08:36:41.547Z,7.47
2023-02-04T08:39:08.357Z,7.53
2023-02-04T08:41:35.166Z,7.60
2023-02-04T08:44:01.996Z,7.65
2023-02-04T08:46:28.821Z,7.66
2023-02-04T08:48:55.848Z,7.67
2023-02-04T08:51:22.852Z,7.69
2023-02-04T08:53:49.635Z,7.69
2023-02-04T08:56:17.887Z,7.67
2023-02-04T08:58:45.078Z,7.65
2023-02-04T09:01:11.923Z,7.61
2023-02-04T09:03:39.318Z,7.58
2023-02-04T09:06:07.171Z,7.57
2023-02-04T09:08:34.112Z,7.58
2023-02-04T09:11:01.044Z,7.59
2023-02-04T09:13:27.822Z,7.62
2023-02-04T09:15:54.637Z,7.65
2023-02-04T09:18:22.404Z,7.67
2023-02-04T09:20:50.128Z,7.71
2023-02-04T09:23:17.198Z,7.72
2023-02-04T09:25:45.868Z,7.76
2023-02-04T09:28:17.095Z,7.79
2023-02-04T09:30:46.947Z,7.85
2023-02-04T09:33:16.870Z,7.91
2023-02-04T09:35:44.436Z,7.97
2023-02-04T09:38:11.312Z,8.04
2023-02-04T09:40:43.317Z,8.12
2023-02-04T09:43:18.577Z,8.18
2023-02-04T09:45:45.502Z,8.24
2023-02-04T09:48:14.599Z,8.31
2023-02-04T09:50:42.116Z,8.37
2023-02-04T09:53:17.450Z,8.41
2023-02-04T09:55:46.809Z,8.44
2023-02-04T09:58:22.596Z,8.48
2023-02-04T10:00:59.244Z,8.52
2023-02-04T10:03:26.220Z,8.56
2023-02-04T10:05:53.242Z,8.60
2023-02-04T10:08:28.583Z,8.64
2023-02-04T10:10:57.848Z,8.68
2023-02-04T10:13:37.534Z,8.72
2023-02-04T10:16:14.901Z,8.77
2023-02-04T10:18:42.183Z,8.79
2023-02-04T10:21:20.765Z,8.83
2023-02-04T10:23:51.045Z,8.85
2023-02-04T10:26:19.167Z,8.90
2023-02-04T10:28:46.010Z,8.98
2023-02-04T10:31:37.516Z,9.07
2023-02-04T10:34:10.690Z,9.13
2023-02-04T10:36:38.633Z,9.18
2023-02-04T10:39:18.332Z,9.24
2023-02-04T10:41:49.798Z,9.31
2023-02-04T10:44:25.115Z,9.35
2023-02-04T10:47:09.476Z,9.39
2023-02-04T10:49:36.621Z,9.43
2023-02-04T10:52:15.874Z,9.47
2023-02-04T10:54:43.589Z,9.53
2023-02-04T10:57:27.166Z,9.61
2023-02-04T10:59:58.092Z,9.70
2023-02-04T11:02:46.304Z,9.82
2023-02-04T11:05:22.454Z,9.97
2023-02-04T11:07:50.799Z,10.08
2023-02-04T11:10:21.688Z,10.17
2023-02-04T11:13:05.531Z,10.22
2023-02-04T11:15:51.131Z,10.28
2023-02-04T11:18:21.027Z,10.36
2023-02-04T11:20:56.343Z,10.45
2023-02-04T11:23:32.874Z,10.48
2023-02-04T11:26:21.680Z,10.50
2023-02-04T11:29:00.778Z,10.54
2023-02-04T11:31:41.993Z,10.60
2023-02-04T11:34:10.579Z,10.65
2023-02-04T11:37:04.321Z,10.68
2023-02-04T11:39:44.476Z,10.66
2023-02-04T11:42:30.330Z,10.58
2023-02-04T11:45:21.648Z,10.53
2023-02-04T11:47:50.399Z,10.50
2023-02-04T11:50:34.502Z,10.54
2023-02-04T11:53:02.525Z,10.56
2023-02-04T11:55:32.394Z,10.56
2023-02-04T11:57:59.316Z,10.55
2023-02-04T12:00:32.199Z,10.57
2023-02-04T12:03:04.522Z,10.60
2023-02-04T12:05:47.224Z,10.62
2023-02-04T12:08:24.881Z,10.61
2023-02-04T12:11:04.698Z,10.60
2023-02-04T12:13:32.374Z,10.57
2023-02-04T12:16:05.774Z,10.54
2023-02-04T12:18:34.523Z,10.53
2023-02-04T12:21:02.659Z,10.59
2023-02-04T12:23:30.520Z,10.65
2023-02-04T12:25:58.420Z,10.70
2023-02-04T12:28:27.862Z,10.76
2023-02-04T12:30:55.574Z,10.84
2023-02-04T12:33:22.830Z,10.87
2023-02-04T12:35:49.670Z,10.89
2023-02-04T12:38:16.437Z,10.86
2023-02-04T12:40:43.417Z,10.83
2023-02-04T12:43:10.190Z,10.75
2023-02-04T12:45:38.132Z,10.68
2023-02-04T12:48:04.956Z,10.61
2023-02-04T12:50:31.914Z,10.56
2023-02-04T12:52:59.756Z,10.51
2023-02-04T12:55:28.456Z,10.47
2023-02-04T12:57:56.252Z,10.43
2023-02-04T13:00:24.091Z,10.40
2023-02-04T13:02:51.500Z,10.34
2023-02-04T13:05:18.473Z,10.28
2023-02-04T13:07:46.184Z,10.22
2023-02-04T13:10:14.306Z,10.21
2023-02-04T13:12:41.398Z,10.17
2023-02-04T13:15:09.048Z,10.16
2023-02-04T13:17:36.057Z,10.16
2023-02-04T13:20:03.571Z,10.14
2023-02-04T13:22:30.329Z,10.12
2023-02-04T13:24:57.104Z,10.15
2023-02-04T13:27:23.886Z,10.14
2023-02-04T13:29:50.690Z,10.10
2023-02-04T13:32:17.464Z,10.04
2023-02-04T13:34:44.233Z,10.02
2023-02-04T13:37:11.002Z,9.99
2023-02-04T13:39:37.773Z,9.96
2023-02-04T13:42:04.672Z,9.96
2023-02-04T13:44:31.485Z,9.95
2023-02-04T13:46:58.253Z,9.95
2023-02-04T13:49:25.192Z,9.96
2023-02-04T13:51:51.952Z,9.98
2023-02-04T13:54:18.767Z,9.99
2023-02-04T13:56:45.544Z,10.01
2023-02-04T13:59:12.408Z,10.02
2023-02-04T14:01:39.264Z,10.01
2023-02-04T14:04:06.062Z,10.01
2023-02-04T14:06:38.128Z,10.02
2023-02-04T14:09:05.120Z,10.03
2023-02-04T14:11:31.907Z,10.06
2023-02-04T14:13:58.668Z,10.07
2023-02-04T14:16:25.510Z,10.06
2023-02-04T14:18:52.411Z,10.06
2023-02-04T14:21:19.424Z,10.04
2023-02-04T14:23:46.190Z,10.05
2023-02-04T14:26:12.970Z,10.06
2023-02-04T14:28:39.740Z,10.04
2023-02-04T14:31:06.551Z,10.01
2023-02-04T14:33:33.344Z,9.97
2023-02-04T14:36:00.513Z,9.97
2023-02-04T14:38:30.894Z,9.97
2023-02-04T14:40:58.685Z,9.96
2023-02-04T14:43:25.922Z,9.95
2023-02-04T14:45:52.987Z,9.95
2023-02-04T14:48:19.860Z,9.96
2023-02-04T14:50:46.623Z,9.93
2023-02-04T14:53:13.368Z,9.89
2023-02-04T14:55:40.146Z,9.86
2023-02-04T14:58:07.079Z,9.79
2023-02-04T15:00:34.324Z,9.74
2023-02-04T15:03:01.298Z,9.67
2023-02-04T15:05:28.047Z,9.60
2023-02-04T15:07:54.958Z,9.53
2023-02-04T15:10:22.816Z,9.50
2023-02-04T15:12:49.769Z,9.43
2023-02-04T15:15:16.598Z,9.37
2023-02-04T15:17:43.413Z,9.32
2023-02-04T15:20:11.141Z,9.28
2023-02-04T15:22:38.353Z,9.23
2023-02-04T15:25:05.873Z,9.18
2023-02-04T15:27:32.643Z,9.12
2023-02-04T15:29:59.406Z,9.07
2023-02-04T15:32:26.320Z,9.02
2023-02-04T15:34:53.141Z,8.96
2023-02-04T15:37:19.973Z,8.92
2023-02-04T15:39:46.758Z,8.87
2023-02-04T15:42:14.373Z,8.82
2023-02-04T15:44:41.250Z,8.75
2023-02-04T15:47:08.031Z,8.72
2023-02-04T15:49:35.087Z,8.66
2023-02-04T15:52:02.394Z,8.59
2023-02-04T15:54:29.568Z,8.52
2023-02-04T15:56:56.347Z,8.46
2023-02-04T15:59:23.692Z,8.38
2023-02-04T16:01:50.731Z,8.34
2023-02-04T16:04:19.842Z,8.29
2023-02-04T16:06:57.803Z,8.23
2023-02-04T16:09:25.814Z,8.18
2023-02-04T16:11:52.576Z,8.14
2023-02-04T16:14:19.366Z,8.10
2023-02-04T16:16:46.135Z,8.09
2023-02-04T16:19:12.929Z,8.08
2023-02-04T16:21:39.707Z,8.07
2023-02-04T16:24:06.852Z,8.06
2023-02-04T16:26:33.629Z,8.07
2023-02-04T16:29:00.454Z,8.08
2023-02-04T16:31:27.321Z,8.09
2023-02-04T16:33:54.164Z,8.10
2023-02-04T16:36:22.326Z,8.09
2023-02-04T16:38:49.205Z,8.09
2023-02-04T16:41:16.052Z,8.09
2023-02-04T16:43:42.814Z,8.10
2023-02-04T16:46:09.867Z,8.10
2023-02-04T16:48:36.673Z,8.09
2023-02-04T16:51:04.437Z,8.11
2023-02-04T16:53:31.254Z,8.09
2023-02-04T16:55:58.072Z,8.06
2023-02-04T16:58:26.083Z,8.06
2023-02-04T17:00:52.866Z,8.03
2023-02-04T17:03:19.669Z,8.00
2023-02-04T17:05:46.551Z,7.98
2023-02-04T17:08:15.041Z,7.92
2023-02-04T17:11:00.247Z,7.89
2023-02-04T17:13:27.114Z,7.86
2023-02-04T17:16:00.394Z,7.84
2023-02-04T17:18:29.661Z,7.79
2023-02-04T17:20:56.951Z,7.78
2023-02-04T17:23:23.823Z,7.76
2023-02-04T17:25:50.613Z,7.71
2023-02-04T17:28:17.552Z,7.72
2023-02-04T17:30:44.561Z,7.68
2023-02-04T17:33:11.352Z,7.66
2023-02-04T17:35:38.187Z,7.64
2023-02-04T17:38:04.993Z,7.59
2023-02-04T17:40:32.474Z,7.57
2023-02-04T17:42:59.287Z,7.56
2023-02-04T17:45:26.259Z,7.52
2023-02-04T17:47:53.016Z,7.51
2023-02-04T17:50:19.833Z,7.50
2023-02-04T17:52:47.002Z,7.47
2023-02-04T17:55:28.957Z,7.44
2023-02-04T17:58:02.273Z,7.38
2023-02-04T18:00:31.513Z,7.35
2023-02-04T18:02:58.883Z,7.31
2023-02-04T18:05:28.564Z,7.29
2023-02-04T18:08:22.380Z,7.25
2023-02-04T18:10:52.154Z,7.20
2023-02-04T18:13:25.528Z,7.15
2023-02-04T18:15:57.977Z,7.12
2023-02-04T18:18:39.919Z,7.10
2023-02-04T18:21:22.925Z,7.04
2023-02-04T18:24:17.416Z,6.99
2023-02-04T18:26:46.969Z,6.87
2023-02-04T18:29:34.842Z,6.81
2023-02-04T18:32:19.482Z,6.75
2023-02-04T18:34:53.594Z,6.70
2023-02-04T18:37:29.506Z,6.61
2023-02-04T18:40:17.981Z,6.56
2023-02-04T18:42:46.380Z,6.51
2023-02-04T18:45:29.319Z,6.48
2023-02-04T18:47:59.280Z,6.42
2023-02-04T18:50:33.407Z,6.41
2023-02-04T18:53:15.399Z,6.36
2023-02-04T18:55:51.614Z,6.28
2023-02-04T18:58:40.857Z,6.23
2023-02-04T19:01:10.552Z,6.16
2023-02-04T19:03:48.824Z,6.12
2023-02-04T19:06:39.430Z,6.07
2023-02-04T19:09:23.612Z,6.03
2023-02-04T19:11:59.300Z,5.99
2023-02-04T19:14:43.330Z,5.94
2023-02-04T19:17:29.900Z,5.89
2023-02-04T19:20:18.029Z,5.85
2023-02-04T19:22:56.237Z,5.81
2023-02-04T19:25:25.606Z,5.79
2023-02-04T19:27:59.605Z,5.76
2023-02-04T19:30:26.296Z,5.70
2023-02-04T19:32:56.922Z,5.67
2023-02-04T19:35:28.978Z,5.65
2023-02-04T19:38:22.621Z,5.63
2023-02-04T19:40:53.001Z,5.62
2023-02-04T19:43:27.093Z,5.61
2023-02-04T19:45:54.257Z,5.56
2023-02-04T19:48:34.732Z,5.54
2023-02-04T19:51:24.498Z,5.54
2023-02-04T19:53:59.000Z,5.53
2023-02-04T19:56:35.127Z,5.54
2023-02-04T19:59:25.305Z,5.51
2023-02-04T20:02:22.494Z,5.52
2023-02-04T20:04:54.075Z,5.52
2023-02-04T20:07:25.016Z,5.54
2023-02-04T20:10:23.204Z,5.55
2023-02-04T20:13:00.600Z,5.56
2023-02-04T20:15:27.375Z,5.56
2023-02-04T20:17:54.739Z,5.59
2023-02-04T20:20:30.765Z,5.63
2023-02-04T20:23:27.704Z,5.66
2023-02-04T20:25:55.963Z,5.69
2023-02-04T20:28:43.129Z,5.72
2023-02-04T20:31:25.251Z,5.75
2023-02-04T20:33:56.241Z,5.78
2023-02-04T20:36:35.715Z,5.80
2023-02-04T20:39:35.601Z,5.80
2023-02-04T20:42:27.667Z,5.82
2023-02-04T20:44:55.902Z,5.80
2023-02-04T20:47:25.460Z,5.82
2023-02-04T20:49:59.189Z,5.84
2023-02-04T20:52:41.150Z,5.84
2023-02-04T20:55:33.312Z,5.84
2023-02-04T20:58:15.054Z,5.84
2023-02-04T21:00:43.457Z,5.84
2023-02-04T21:03:13.144Z,5.84
2023-02-04T21:05:40.651Z,5.84
2023-02-04T21:08:44.665Z,5.83
2023-02-04T21:11:11.464Z,5.82
2023-02-04T21:13:38.786Z,5.82
2023-02-04T21:16:06.723Z,5.82
2023-02-04T21:18:34.569Z,5.83
2023-02-04T21:21:03.606Z,5.85
2023-02-04T21:23:30.481Z,5.86
2023-02-04T21:25:57.421Z,5.87
2023-02-04T21:28:24.328Z,5.89
2023-02-04T21:30:51.273Z,5.91
2023-02-04T21:33:18.151Z,5.92
2023-02-04T21:35:45.120Z,5.93
2023-02-04T21:38:11.998Z,5.93
2023-02-04T21:40:39.191Z,5.92
2023-02-04T21:43:08.060Z,5.91
2023-02-04T21:45:37.473Z,5.91
2023-02-04T21:48:05.365Z,5.89
2023-02-04T21:50:32.974Z,5.84
2023-02-04T21:52:59.800Z,5.81
2023-02-04T21:55:27.035Z,5.77
2023-02-04T21:57:53.819Z,5.73
2023-02-04T22:00:25.291Z,5.69
2023-02-04T22:02:52.986Z,5.65
2023-02-04T22:05:21.365Z,5.62
2023-02-04T22:07:48.631Z,5.57
2023-02-04T22:10:19.819Z,5.53
2023-02-04T22:12:46.744Z,5.49
2023-02-04T22:15:13.607Z,5.45
2023-02-04T22:17:40.375Z,5.40
2023-02-04T22:20:07.839Z,5.36
2023-02-04T22:22:34.663Z,5.31
2023-02-04T22:25:01.788Z,5.28
2023-02-04T22:27:28.721Z,5.24
2023-02-04T22:29:56.801Z,5.21
2023-02-04T22:32:24.124Z,5.19
2023-02-04T22:34:50.915Z,5.15
2023-02-04T22:37:17.684Z,5.13
2023-02-04T22:39:44.450Z,5.10
2023-02-04T22:42:11.209Z,5.08
2023-02-04T22:44:38.000Z,5.05
2023-02-04T22:47:04.886Z,5.02
2023-02-04T22:49:33.314Z,5.00
2023-02-04T22:52:00.138Z,4.96
2023-02-04T22:54:26.941Z,4.95
2023-02-04T22:56:53.880Z,4.92
2023-02-04T22:59:20.656Z,4.90
2023-02-04T23:01:47.484Z,4.88
2023-02-04T23:04:14.259Z,4.86
2023-02-04T23:06:41.232Z,4.83
2023-02-04T23:09:08.301Z,4.82
2023-02-04T23:11:35.397Z,4.79
2023-02-04T23:14:02.340Z,4.77
2023-02-04T23:16:29.162Z,4.76
2023-02-04T23:18:55.932Z,4.74
2023-02-04T23:21:22.925Z,4.70
2023-02-04T23:23:50.894Z,4.71
2023-02-04T23:26:17.902Z,4.68
2023-02-04T23:28:44.780Z,4.67
2023-02-04T23:31:11.667Z,4.67
2023-02-04T23:33:38.435Z,4.66
2023-02-04T23:36:05.547Z,4.65
2023-02-04T23:38:32.329Z,4.65
2023-02-04T23:41:00.141Z,4.65
2023-02-04T23:43:28.123Z,4.64
2023-02-04T23:45:57.094Z,4.62
2023-02-04T23:48:24.727Z,4.61
2023-02-04T23:50:51.732Z,4.60
2023-02-04T23:53:19.347Z,4.57
2023-02-04T23:55:46.451Z,4.57
2023-02-04T23:58:13.315Z,4.54
